Time;durP1;ratioP1;P1;durP2;ratioP2;P2;SDS_P1;SDS_P2;PMS_P1;PMS_P2;Temp;Humidity;BMP_temperature;BMP_pressure;BME280_temperature;BME280_humidity;BME280_pressure;Samples;Min_cycle;Max_cycle;Signal;HPM_P1;HPM_P2
2022/11/23 00:01:15;;;;;;;3.33;2.20;;;9.50;99.90;;;;;;5041755;28;20044;-40
2022/11/23 00:03:41;;;;;;;4.88;2.80;;;9.50;99.90;;;;;;5043036;28;20040;-39
2022/11/23 00:06:07;;;;;;;4.47;2.58;;;9.50;99.90;;;;;;5042461;28;20114;-38
2022/11/23 00:08:32;;;;;;;3.90;2.35;;;9.50;99.90;;;;;;5042688;28;20112;-40
2022/11/23 00:10:58;;;;;;;4.38;2.35;;;9.50;99.90;;;;;;5043023;28;20024;-41
2022/11/23 00:13:30;;;;;;;4.22;2.60;;;9.50;99.90;;;;;;5042909;28;20028;-41
2022/11/23 00:15:56;;;;;;;6.15;3.28;;;9.50;99.90;;;;;;5042870;28;20499;-40
2022/11/23 00:18:21;;;;;;;4.07;2.75;;;9.50;99.90;;;;;;5043251;28;20021;-42
2022/11/23 00:20:50;;;;;;;4.28;3.10;;;9.50;99.90;;;;;;5041738;28;20037;-41
2022/11/23 00:23:24;;;;;;;4.97;2.78;;;9.50;99.90;;;;;;5042160;28;20063;-39
2022/11/23 00:25:56;;;;;;;4.45;2.60;;;9.50;99.90;;;;;;5042044;28;20131;-42
2022/11/23 00:28:22;;;;;;;4.23;2.87;;;9.50;99.90;;;;;;5042122;28;20059;-40
2022/11/23 00:30:49;;;;;;;6.50;3.08;;;9.50;99.90;;;;;;5042909;28;20076;-39
2022/11/23 00:33:15;;;;;;;5.60;3.50;;;9.50;99.90;;;;;;5042950;28;20021;-41
2022/11/23 00:35:40;;;;;;;4.00;3.17;;;9.50;99.90;;;;;;5041331;28;20052;-38
2022/11/23 00:38:06;;;;;;;6.90;3.35;;;9.50;99.90;;;;;;5042896;28;20028;-42
2022/11/23 00:40:31;;;;;;;6.25;3.50;;;9.50;99.90;;;;;;5042500;28;20041;-41
2022/11/23 00:42:57;;;;;;;5.43;3.70;;;9.50;99.90;;;;;;5041100;28;20044;-39
2022/11/23 00:45:22;;;;;;;5.32;3.53;;;9.50;99.90;;;;;;5042189;28;20056;-41
2022/11/23 00:47:48;;;;;;;7.22;4.25;;;9.50;99.90;;;;;;5041727;28;20040;-41
2022/11/23 00:50:13;;;;;;;5.88;3.38;;;9.50;99.90;;;;;;5041274;28;20135;-41
2022/11/23 00:52:39;;;;;;;6.45;3.60;;;9.50;99.90;;;;;;5042347;28;20040;-41
2022/11/23 00:55:05;;;;;;;5.05;3.22;;;9.50;99.90;;;;;;5041395;28;20025;-40
2022/11/23 00:57:32;;;;;;;6.75;3.45;;;9.60;99.90;;;;;;5041059;28;20025;-42
2022/11/23 00:59:57;;;;;;;7.43;3.60;;;9.60;99.90;;;;;;5042290;28;20025;-41
2022/11/23 01:02:23;;;;;;;9.57;4.82;;;9.60;99.90;;;;;;5040366;28;20033;-40
2022/11/23 01:04:48;;;;;;;8.63;4.68;;;9.60;99.90;;;;;;5041328;28;20674;-40
2022/11/23 01:07:14;;;;;;;7.43;4.47;;;9.60;99.90;;;;;;5041533;28;20044;-41
2022/11/23 01:09:39;;;;;;;7.20;4.70;;;9.60;99.90;;;;;;5041051;28;20017;-41
2022/11/23 01:12:05;;;;;;;6.80;3.80;;;9.60;99.90;;;;;;5040819;28;20052;-39
2022/11/23 01:14:31;;;;;;;9.55;4.28;;;9.60;99.90;;;;;;5041592;28;20028;-39
2022/11/23 01:16:56;;;;;;;8.13;3.75;;;9.60;99.90;;;;;;5040954;28;20192;-39
2022/11/23 01:19:22;;;;;;;8.77;4.15;;;9.70;99.90;;;;;;5041637;28;20080;-39
2022/11/23 01:21:47;;;;;;;8.57;4.00;;;9.70;99.90;;;;;;5041053;28;20037;-40
2022/11/23 01:24:15;;;;;;;5.90;3.60;;;9.60;99.90;;;;;;5040115;28;20487;-40
2022/11/23 01:26:42;;;;;;;10.98;4.10;;;9.60;99.90;;;;;;5041149;28;20736;-41
2022/11/23 01:29:08;;;;;;;8.80;4.32;;;9.70;99.90;;;;;;5041559;28;20056;-41
2022/11/23 01:31:34;;;;;;;6.47;3.40;;;9.70;99.90;;;;;;5041534;28;20087;-41
2022/11/23 01:34:01;;;;;;;5.80;3.80;;;9.70;99.90;;;;;;5041601;28;20104;-39
2022/11/23 01:36:29;;;;;;;4.82;3.08;;;9.70;99.90;;;;;;5041481;28;20065;-40
2022/11/23 01:38:56;;;;;;;7.18;3.50;;;9.70;99.90;;;;;;5040655;28;20013;-40
2022/11/23 01:41:27;;;;;;;8.55;3.47;;;9.70;99.90;;;;;;5041178;28;20041;-40
2022/11/23 01:43:53;;;;;;;8.60;3.17;;;9.70;99.90;;;;;;5040089;28;20021;-41
2022/11/23 01:46:19;;;;;;;5.75;3.15;;;9.70;99.90;;;;;;5040194;28;20052;-40
2022/11/23 01:48:50;;;;;;;6.60;3.20;;;9.70;99.90;;;;;;5040694;28;20127;-41
2022/11/23 01:51:21;;;;;;;9.75;3.70;;;9.70;99.90;;;;;;5040937;28;20484;-37
2022/11/23 01:53:50;;;;;;;7.20;3.25;;;9.70;99.90;;;;;;5040163;28;20119;-39
2022/11/23 01:56:19;;;;;;;6.85;3.33;;;9.70;99.90;;;;;;5040791;28;20541;-41
2022/11/23 01:58:49;;;;;;;7.53;3.20;;;9.70;99.90;;;;;;5039858;28;20508;-41
2022/11/23 02:01:15;;;;;;;6.07;2.95;;;9.70;99.90;;;;;;5040585;28;20373;-39
2022/11/23 02:03:45;;;;;;;7.05;3.30;;;9.70;99.90;;;;;;5040757;28;20025;-37
2022/11/23 02:06:14;;;;;;;8.73;3.58;;;9.70;99.90;;;;;;5040199;28;20049;-41
2022/11/23 02:08:41;;;;;;;8.40;3.08;;;9.70;99.90;;;;;;5040931;28;20422;-39
2022/11/23 02:11:08;;;;;;;6.63;2.97;;;9.70;99.90;;;;;;5040370;28;20028;-39
2022/11/23 02:13:34;;;;;;;5.45;3.10;;;9.70;99.90;;;;;;5039884;28;20179;-40
2022/11/23 02:16:00;;;;;;;6.03;2.92;;;9.70;99.90;;;;;;5044212;28;20477;-41
2022/11/23 02:18:29;;;;;;;4.82;2.92;;;9.70;99.90;;;;;;5044510;28;20017;-41
2022/11/23 02:20:59;;;;;;;6.25;3.00;;;9.70;99.90;;;;;;5044294;28;20044;-40
2022/11/23 02:23:51;;;;;;;7.13;2.85;;;9.70;99.90;;;;;;5044827;28;20021;-40
2022/11/23 02:26:28;;;;;;;3.88;2.20;;;9.70;99.90;;;;;;5036836;28;20484;-39
2022/11/23 02:29:09;;;;;;;6.40;2.95;;;9.70;99.90;;;;;;5044285;28;20028;-41
2022/11/23 02:31:35;;;;;;;5.85;2.72;;;9.70;99.90;;;;;;5045434;28;20029;-39
2022/11/23 02:34:01;;;;;;;7.55;3.10;;;9.70;99.90;;;;;;5044055;28;20040;-41
2022/11/23 02:36:42;;;;;;;6.85;2.88;;;9.70;99.90;;;;;;5044279;28;20131;-41
2022/11/23 02:39:16;;;;;;;5.90;2.35;;;9.70;99.90;;;;;;5043718;28;20071;-41
2022/11/23 02:41:49;;;;;;;4.90;2.40;;;9.60;99.90;;;;;;5043890;28;20083;-41
2022/11/23 02:44:21;;;;;;;6.43;2.60;;;9.70;99.90;;;;;;5043735;28;20079;-40
2022/11/23 02:46:46;;;;;;;5.68;2.35;;;9.70;99.90;;;;;;5044437;28;20029;-40
2022/11/23 02:49:12;;;;;;;7.18;2.80;;;9.60;99.90;;;;;;5043655;28;20735;-41
2022/11/23 02:51:37;;;;;;;5.00;2.67;;;9.70;99.90;;;;;;5044062;28;20452;-40
2022/11/23 02:54:03;;;;;;;5.68;2.50;;;9.70;99.90;;;;;;5044360;28;20035;-40
2022/11/23 02:56:29;;;;;;;5.95;2.90;;;9.70;99.90;;;;;;5043812;28;20115;-40
2022/11/23 02:58:54;;;;;;;5.70;2.28;;;9.70;99.90;;;;;;5044246;28;20064;-40
2022/11/23 03:01:20;;;;;;;6.22;3.40;;;9.60;99.90;;;;;;5043917;28;20734;-41
2022/11/23 03:03:45;;;;;;;7.03;3.03;;;9.60;99.90;;;;;;5043610;28;20472;-41
2022/11/23 03:06:11;;;;;;;4.85;2.50;;;9.60;99.90;;;;;;5043898;28;20068;-40
2022/11/23 03:08:36;;;;;;;6.93;2.85;;;9.60;99.90;;;;;;5044233;28;20098;-41
2022/11/23 03:11:02;;;;;;;4.57;2.58;;;9.60;99.90;;;;;;5042252;28;20043;-41
2022/11/23 03:13:27;;;;;;;6.68;2.72;;;9.60;99.90;;;;;;5040183;28;20467;-41
2022/11/23 03:15:55;;;;;;;7.20;2.55;;;9.60;99.90;;;;;;5034153;28;20914;-41
2022/11/23 03:18:21;;;;;;;4.85;2.20;;;9.60;99.90;;;;;;5043553;28;20025;-41
2022/11/23 03:20:50;;;;;;;7.10;2.80;;;9.60;99.90;;;;;;5043411;28;20477;-41
2022/11/23 03:23:15;;;;;;;3.28;2.15;;;9.60;99.90;;;;;;5039828;28;20071;-41
2022/11/23 03:25:41;;;;;;;7.15;2.75;;;9.60;99.90;;;;;;5042427;28;20024;-39
2022/11/23 03:28:06;;;;;;;5.63;2.10;;;9.60;99.90;;;;;;5042852;28;20029;-41
2022/11/23 03:30:32;;;;;;;9.13;2.20;;;9.60;99.90;;;;;;5040486;28;20040;-38
2022/11/23 03:32:57;;;;;;;3.42;1.90;;;9.70;99.90;;;;;;5041375;28;20021;-40
2022/11/23 03:35:23;;;;;;;8.30;2.60;;;9.70;99.90;;;;;;5043019;28;20059;-38
2022/11/23 03:37:48;;;;;;;7.70;1.88;;;9.70;99.90;;;;;;5042660;28;20025;-38
2022/11/23 03:40:14;;;;;;;5.70;1.90;;;9.80;99.90;;;;;;5042543;28;20059;-41
2022/11/23 03:42:40;;;;;;;3.75;1.80;;;9.80;99.90;;;;;;5042917;28;20813;-39
2022/11/23 03:45:07;;;;;;;6.38;1.80;;;9.80;99.90;;;;;;5042742;28;20025;-41
2022/11/23 03:47:32;;;;;;;5.38;1.70;;;9.80;99.90;;;;;;5043667;28;20033;-39
2022/11/23 03:49:58;;;;;;;3.67;1.45;;;9.80;99.90;;;;;;5042908;28;20029;-40
2022/11/23 03:52:23;;;;;;;5.28;2.10;;;9.80;99.90;;;;;;5042433;28;20032;-39
2022/11/23 03:54:49;;;;;;;5.50;1.75;;;9.80;99.90;;;;;;5043492;28;20107;-40
2022/11/23 03:57:14;;;;;;;7.72;1.65;;;9.80;99.90;;;;;;5043321;28;20025;-41
2022/11/23 03:59:40;;;;;;;5.53;1.88;;;9.80;99.90;;;;;;5042378;28;20769;-41
2022/11/23 04:02:06;;;;;;;6.10;1.50;;;9.80;99.90;;;;;;5043415;28;20029;-42
2022/11/23 04:04:33;;;;;;;5.63;1.88;;;9.80;99.90;;;;;;5043106;28;20459;-41
2022/11/23 04:06:59;;;;;;;4.93;1.75;;;9.80;99.90;;;;;;5041662;28;20530;-38
2022/11/23 04:09:24;;;;;;;5.85;1.75;;;9.80;99.90;;;;;;5042817;28;20033;-41
2022/11/23 04:11:50;;;;;;;6.85;1.98;;;9.80;99.90;;;;;;5042816;28;20020;-40
2022/11/23 04:14:16;;;;;;;6.80;2.58;;;9.80;99.90;;;;;;5041596;28;20797;-40
2022/11/23 04:16:42;;;;;;;5.35;1.70;;;9.80;99.90;;;;;;5042244;28;20029;-40
2022/11/23 04:19:07;;;;;;;5.82;2.10;;;9.80;99.90;;;;;;5041649;28;20086;-39
2022/11/23 04:21:33;;;;;;;5.40;2.33;;;9.80;99.90;;;;;;5041921;28;20554;-40
2022/11/23 04:23:58;;;;;;;6.13;2.17;;;9.80;99.90;;;;;;5041999;28;20024;-40
2022/11/23 04:26:24;;;;;;;5.97;1.77;;;9.80;99.90;;;;;;5041991;28;20484;-35
2022/11/23 04:28:49;;;;;;;5.32;1.65;;;9.80;99.90;;;;;;5041855;28;20516;-40
2022/11/23 04:31:15;;;;;;;6.72;1.85;;;9.80;99.90;;;;;;5041840;28;20029;-40
2022/11/23 04:33:41;;;;;;;7.30;2.03;;;9.80;99.90;;;;;;5041011;28;20028;-39
2022/11/23 04:36:06;;;;;;;7.70;1.80;;;9.80;99.90;;;;;;5041979;28;20068;-37
2022/11/23 04:38:32;;;;;;;4.47;1.60;;;9.80;99.90;;;;;;5041154;28;20031;-42
2022/11/23 04:40:58;;;;;;;5.57;1.92;;;9.80;99.90;;;;;;5041289;28;20029;-42
2022/11/23 04:43:23;;;;;;;8.07;1.60;;;9.80;99.90;;;;;;5042320;28;20491;-40
2022/11/23 04:45:49;;;;;;;5.35;1.60;;;9.80;99.90;;;;;;5042700;28;20111;-40
2022/11/23 04:48:14;;;;;;;5.60;1.63;;;9.80;99.90;;;;;;5041262;28;20482;-40
2022/11/23 04:50:40;;;;;;;5.00;1.50;;;9.80;99.90;;;;;;5041781;28;20113;-40
2022/11/23 04:53:07;;;;;;;5.65;1.67;;;9.80;99.90;;;;;;5042013;28;20130;-40
2022/11/23 04:55:32;;;;;;;5.10;1.45;;;9.70;99.90;;;;;;5041300;28;20021;-40
2022/11/23 04:57:58;;;;;;;6.82;1.73;;;9.70;99.90;;;;;;5041997;28;20033;-41
2022/11/23 05:00:24;;;;;;;6.85;1.90;;;9.70;99.90;;;;;;5041160;28;20025;-41
2022/11/23 05:02:49;;;;;;;7.70;1.90;;;9.70;99.90;;;;;;5041623;28;20382;-40
2022/11/23 05:05:15;;;;;;;7.78;2.00;;;9.70;99.90;;;;;;5041655;28;20025;-40
2022/11/23 05:07:40;;;;;;;4.60;1.70;;;9.70;99.90;;;;;;5041787;28;20662;-40
2022/11/23 05:10:06;;;;;;;2.70;1.50;;;9.70;99.90;;;;;;5040686;28;20074;-39
2022/11/23 05:12:32;;;;;;;4.72;1.58;;;9.70;99.90;;;;;;5041774;28;20575;-41
2022/11/23 05:14:57;;;;;;;10.27;2.00;;;9.70;99.90;;;;;;5041293;28;20128;-40
2022/11/23 05:17:23;;;;;;;6.53;2.00;;;9.60;99.90;;;;;;5040640;28;20029;-40
2022/11/23 05:19:49;;;;;;;4.57;1.58;;;9.70;99.90;;;;;;5041293;28;20035;-37
2022/11/23 05:22:14;;;;;;;5.70;1.85;;;9.70;99.90;;;;;;5041329;28;20045;-39
2022/11/23 05:24:40;;;;;;;6.38;1.95;;;9.60;99.90;;;;;;5040372;28;20044;-40
2022/11/23 05:27:05;;;;;;;5.47;1.83;;;9.60;99.90;;;;;;5041040;28;20017;-41
2022/11/23 05:29:31;;;;;;;8.85;1.77;;;9.70;99.90;;;;;;5040639;28;20023;-41
2022/11/23 05:31:56;;;;;;;6.85;1.88;;;9.70;99.90;;;;;;5042145;28;20044;-40
2022/11/23 05:34:22;;;;;;;4.40;1.52;;;9.70;99.90;;;;;;5041713;28;20507;-41
2022/11/23 05:36:47;;;;;;;5.43;1.63;;;9.70;99.90;;;;;;5036586;28;20048;-40
2022/11/23 05:39:13;;;;;;;4.43;1.50;;;9.70;99.90;;;;;;5041489;28;20057;-40
2022/11/23 05:41:38;;;;;;;6.15;1.80;;;9.70;99.90;;;;;;5040216;28;20039;-40
2022/11/23 05:44:04;;;;;;;5.57;1.63;;;9.70;99.90;;;;;;5040393;28;20529;-40
2022/11/23 05:46:29;;;;;;;9.32;1.90;;;9.70;99.90;;;;;;5041483;28;20032;-39
2022/11/23 05:48:55;;;;;;;6.80;1.80;;;9.70;99.90;;;;;;5043678;28;20029;-39
2022/11/23 05:51:20;;;;;;;6.18;2.08;;;9.70;99.90;;;;;;5044883;28;20187;-40
2022/11/23 05:53:47;;;;;;;7.72;1.80;;;9.70;99.90;;;;;;5044878;28;20029;-40
2022/11/23 05:56:12;;;;;;;5.68;1.63;;;9.70;99.90;;;;;;5044795;28;20708;-42
2022/11/23 05:58:38;;;;;;;4.50;1.70;;;9.70;99.90;;;;;;5044035;28;20024;-39
2022/11/23 06:01:03;;;;;;;5.50;1.80;;;9.70;99.90;;;;;;5045063;28;20690;-40
2022/11/23 06:03:29;;;;;;;8.43;2.00;;;9.70;99.90;;;;;;5045937;28;20025;-40
2022/11/23 06:05:54;;;;;;;8.00;1.80;;;9.70;99.90;;;;;;5044447;28;20035;-40
2022/11/23 06:08:20;;;;;;;7.85;1.95;;;9.70;99.90;;;;;;5045499;28;20035;-40
2022/11/23 06:10:46;;;;;;;7.22;2.17;;;9.70;99.90;;;;;;5044858;28;20017;-40
2022/11/23 06:13:11;;;;;;;5.38;1.90;;;9.70;99.90;;;;;;5044691;28;20452;-40
2022/11/23 06:15:37;;;;;;;9.90;3.03;;;9.70;99.90;;;;;;5045122;28;20033;-40
2022/11/23 06:18:02;;;;;;;7.82;1.98;;;9.70;99.90;;;;;;5048496;28;20039;-40
2022/11/23 06:20:28;;;;;;;9.20;2.30;;;9.70;99.90;;;;;;5044112;28;20025;-40
2022/11/23 06:22:55;;;;;;;6.47;2.30;;;9.70;99.90;;;;;;5044326;28;20060;-41
2022/11/23 06:25:21;;;;;;;8.10;2.63;;;9.70;99.90;;;;;;5045001;28;20021;-41
2022/11/23 06:27:57;;;;;;;6.85;2.47;;;9.70;99.90;;;;;;5043862;28;20551;-40
2022/11/23 06:30:23;;;;;;;8.68;2.30;;;9.70;99.90;;;;;;5025269;28;20033;-41
2022/11/23 06:32:49;;;;;;;7.68;2.13;;;9.70;99.90;;;;;;5038687;28;20099;-40
2022/11/23 06:35:15;;;;;;;11.13;2.75;;;9.70;99.90;;;;;;5044271;28;20485;-40
2022/11/23 06:37:41;;;;;;;9.65;2.45;;;9.70;99.90;;;;;;5044717;28;20552;-37
2022/11/23 06:40:07;;;;;;;7.80;1.80;;;9.70;99.90;;;;;;5043481;28;20071;-40
2022/11/23 06:42:33;;;;;;;8.40;2.58;;;9.70;99.90;;;;;;5043822;28;20698;-40
2022/11/23 06:44:58;;;;;;;7.25;1.70;;;9.70;99.90;;;;;;5044897;28;20024;-40
2022/11/23 06:47:24;;;;;;;6.95;1.80;;;9.70;99.90;;;;;;5044130;28;20064;-40
2022/11/23 06:49:49;;;;;;;8.38;2.00;;;9.70;99.90;;;;;;5044023;28;20025;-40
2022/11/23 06:52:15;;;;;;;4.85;1.73;;;9.70;99.90;;;;;;5043878;28;20021;-38
2022/11/23 06:54:40;;;;;;;8.90;2.78;;;9.70;99.90;;;;;;5040669;28;20025;-39
2022/11/23 06:57:09;;;;;;;8.98;3.22;;;9.70;99.90;;;;;;5042524;28;20024;-41
2022/11/23 06:59:35;;;;;;;6.80;1.98;;;9.70;99.90;;;;;;5039572;28;20021;-39
2022/11/23 07:02:00;;;;;;;11.20;3.65;;;9.70;99.90;;;;;;5042410;28;20043;-40
2022/11/23 07:04:26;;;;;;;12.68;3.47;;;9.70;99.90;;;;;;5043197;28;20112;-40
2022/11/23 07:06:51;;;;;;;10.00;2.83;;;9.70;99.90;;;;;;5043518;28;20044;-40
2022/11/23 07:09:17;;;;;;;11.20;2.90;;;9.70;99.90;;;;;;5042531;28;20132;-40
2022/11/23 07:11:42;;;;;;;7.45;2.58;;;9.70;99.90;;;;;;5042854;28;20037;-40
2022/11/23 07:14:08;;;;;;;5.72;2.13;;;9.60;99.90;;;;;;5042828;28;20021;-38
2022/11/23 07:16:34;;;;;;;13.40;2.40;;;9.70;99.90;;;;;;5043038;28;20319;-41
2022/11/23 07:18:59;;;;;;;9.88;2.85;;;9.60;99.90;;;;;;5043313;28;20094;-41
2022/11/23 07:21:25;;;;;;;9.35;3.22;;;9.60;99.90;;;;;;5043626;28;20131;-40
2022/11/23 07:23:50;;;;;;;10.70;2.15;;;9.60;99.90;;;;;;5042826;28;20024;-40
2022/11/23 07:26:16;;;;;;;9.88;2.60;;;9.60;99.90;;;;;;5043650;28;20476;-40
2022/11/23 07:28:42;;;;;;;8.73;2.00;;;9.60;99.90;;;;;;5042772;28;20409;-40
2022/11/23 07:31:07;;;;;;;11.18;2.40;;;9.60;99.90;;;;;;5043213;28;20067;-41
2022/11/23 07:33:33;;;;;;;7.68;2.03;;;9.70;99.90;;;;;;5043472;28;20029;-41
2022/11/23 07:36:02;;;;;;;6.78;2.08;;;9.60;99.90;;;;;;5042767;28;20048;-40
2022/11/23 07:38:28;;;;;;;8.40;2.10;;;9.70;99.90;;;;;;5043411;28;20036;-41
2022/11/23 07:40:59;;;;;;;12.27;3.88;;;9.60;99.90;;;;;;5043222;28;20091;-43
2022/11/23 07:43:25;;;;;;;11.77;2.50;;;9.60;99.90;;;;;;5043151;28;20037;-41
2022/11/23 07:45:50;;;;;;;13.02;2.28;;;9.60;99.90;;;;;;5043117;28;20017;-41
2022/11/23 07:48:16;;;;;;;11.32;2.35;;;9.70;99.90;;;;;;5043372;28;20808;-41
2022/11/23 07:50:42;;;;;;;9.98;2.58;;;9.60;99.90;;;;;;5042325;28;20025;-42
2022/11/23 07:53:09;;;;;;;6.35;2.05;;;9.60;99.90;;;;;;5043103;28;20017;-40
2022/11/23 07:55:34;;;;;;;9.88;2.60;;;9.60;99.90;;;;;;5042166;28;20632;-41
2022/11/23 07:58:00;;;;;;;12.00;2.78;;;9.60;99.90;;;;;;5042701;28;20029;-42
2022/11/23 08:00:27;;;;;;;9.32;2.42;;;9.60;99.90;;;;;;5043020;28;20037;-41
2022/11/23 08:02:53;;;;;;;6.93;1.80;;;9.60;99.90;;;;;;5042741;28;20057;-41
2022/11/23 08:05:18;;;;;;;10.52;2.03;;;9.60;99.90;;;;;;5042918;28;20024;-40
2022/11/23 08:07:47;;;;;;;10.00;2.20;;;9.50;99.90;;;;;;5042448;28;20060;-43
2022/11/23 08:10:12;;;;;;;8.52;2.08;;;9.50;99.90;;;;;;5043138;28;20029;-41
2022/11/23 08:12:39;;;;;;;8.50;1.98;;;9.50;99.90;;;;;;5040721;28;20029;-41
2022/11/23 08:15:05;;;;;;;5.72;1.90;;;9.50;99.90;;;;;;5042507;28;20036;-40
2022/11/23 08:17:30;;;;;;;6.60;1.80;;;9.50;99.90;;;;;;5043101;28;20075;-40
2022/11/23 08:19:56;;;;;;;9.20;2.40;;;9.60;99.90;;;;;;5041571;28;20036;-42
2022/11/23 08:22:21;;;;;;;10.10;2.30;;;9.60;99.90;;;;;;5042030;28;20040;-40
2022/11/23 08:24:47;;;;;;;9.93;1.98;;;9.60;99.90;;;;;;5042778;28;20036;-40
2022/11/23 08:27:13;;;;;;;8.20;1.80;;;9.60;99.90;;;;;;5041425;28;20028;-42
2022/11/23 08:29:38;;;;;;;7.32;2.05;;;9.60;99.90;;;;;;5042568;28;20599;-39
2022/11/23 08:32:04;;;;;;;8.02;2.00;;;9.60;99.90;;;;;;5042089;28;20040;-39
2022/11/23 08:34:29;;;;;;;8.00;1.90;;;9.60;99.90;;;;;;5042189;28;20021;-40
2022/11/23 08:36:55;;;;;;;6.15;1.50;;;9.60;99.90;;;;;;5041631;28;20053;-39
2022/11/23 08:39:21;;;;;;;7.80;2.08;;;9.60;99.90;;;;;;5041226;28;20020;-45
2022/11/23 08:41:47;;;;;;;6.43;1.98;;;9.70;99.90;;;;;;5041202;28;20095;-38
2022/11/23 08:44:12;;;;;;;9.25;2.08;;;9.80;99.90;;;;;;5042189;28;20025;-40
2022/11/23 08:46:38;;;;;;;4.95;1.83;;;9.80;99.90;;;;;;5041654;28;20028;-41
2022/11/23 08:49:05;;;;;;;9.15;2.03;;;9.80;99.90;;;;;;5043277;28;20029;-39
2022/11/23 08:51:30;;;;;;;8.82;2.03;;;9.80;99.90;;;;;;5042411;28;20025;-41
2022/11/23 08:53:56;;;;;;;10.52;2.72;;;9.90;99.90;;;;;;5040981;28;20501;-38
2022/11/23 08:56:22;;;;;;;7.53;2.20;;;9.90;99.90;;;;;;5041957;28;20373;-39
2022/11/23 08:58:48;;;;;;;7.05;1.90;;;9.90;99.90;;;;;;5041940;28;20028;-41
2022/11/23 09:01:15;;;;;;;10.95;2.67;;;10.00;99.90;;;;;;5041080;28;20037;-39
2022/11/23 09:03:41;;;;;;;8.90;2.08;;;10.00;99.90;;;;;;5041720;28;20056;-42
2022/11/23 09:06:08;;;;;;;7.05;1.90;;;10.10;99.90;;;;;;5042031;28;20039;-41
2022/11/23 09:08:34;;;;;;;7.20;1.80;;;10.20;99.90;;;;;;5041125;28;20035;-41
2022/11/23 09:11:01;;;;;;;6.07;1.70;;;10.30;99.90;;;;;;5042524;28;20522;-40
2022/11/23 09:13:30;;;;;;;4.97;1.63;;;10.30;99.90;;;;;;5042051;28;20496;-40
2022/11/23 09:15:57;;;;;;;6.80;1.55;;;10.40;99.90;;;;;;5040486;28;20491;-41
2022/11/23 09:18:24;;;;;;;7.20;2.03;;;10.50;99.90;;;;;;5039876;28;20021;-41
2022/11/23 09:20:49;;;;;;;7.78;2.00;;;10.50;99.90;;;;;;5041216;28;20029;-40
2022/11/23 09:23:15;;;;;;;8.40;2.22;;;10.50;99.90;;;;;;5040214;28;20032;-41
2022/11/23 09:25:42;;;;;;;11.57;2.40;;;10.50;99.90;;;;;;5042138;28;20025;-40
2022/11/23 09:28:07;;;;;;;6.75;2.20;;;10.50;99.90;;;;;;5040994;28;20050;-40
2022/11/23 09:30:33;;;;;;;9.18;2.03;;;10.40;99.90;;;;;;5040761;28;21001;-40
2022/11/23 09:32:58;;;;;;;10.18;2.20;;;10.40;99.90;;;;;;5041222;28;20099;-40
2022/11/23 09:35:24;;;;;;;12.45;2.53;;;10.40;99.90;;;;;;5041460;28;20461;-40
2022/11/23 09:37:57;;;;;;;6.18;1.92;;;10.40;99.90;;;;;;5040368;28;20124;-41
2022/11/23 09:40:24;;;;;;;14.32;2.85;;;10.30;99.90;;;;;;5030942;28;20802;-40
2022/11/23 09:43:14;;;;;;;12.68;2.75;;;10.20;99.90;;;;;;5040558;28;20032;-41
2022/11/23 09:45:50;;;;;;;8.15;1.92;;;10.20;99.90;;;;;;5031078;28;20128;-41
2022/11/23 09:48:46;;;;;;;7.18;2.15;;;10.20;99.90;;;;;;5041217;28;20032;-41
2022/11/23 09:51:19;;;;;;;10.65;2.78;;;10.10;99.90;;;;;;5033530;28;20147;-40
2022/11/23 09:53:49;;;;;;;11.82;2.95;;;10.10;99.90;;;;;;5041173;28;20106;-40
2022/11/23 09:56:31;;;;;;;12.05;2.80;;;10.10;99.90;;;;;;5040660;28;20043;-41
2022/11/23 09:59:01;;;;;;;9.43;2.60;;;10.10;99.90;;;;;;5039570;28;20025;-41
2022/11/23 10:01:26;;;;;;;6.70;2.17;;;10.10;99.90;;;;;;5040984;28;20157;-41
2022/11/23 10:03:52;;;;;;;8.43;2.30;;;10.10;99.90;;;;;;5040097;28;20025;-41
2022/11/23 10:06:30;;;;;;;9.32;2.28;;;10.10;99.90;;;;;;5041097;28;20025;-41
2022/11/23 10:09:05;;;;;;;11.13;3.03;;;10.10;99.90;;;;;;5040246;28;20040;-39
2022/11/23 10:11:57;;;;;;;9.27;2.25;;;10.10;99.90;;;;;;5035031;28;20059;-40
2022/11/23 10:14:44;;;;;;;9.90;2.13;;;10.10;99.90;;;;;;5041186;28;20052;-41
2022/11/23 10:17:38;;;;;;;10.65;2.30;;;10.10;99.90;;;;;;5041508;28;20043;-41
2022/11/23 10:20:41;;;;;;;11.00;2.45;;;10.10;99.90;;;;;;5040397;28;20037;-41
2022/11/23 10:23:17;;;;;;;8.68;2.00;;;10.10;99.90;;;;;;5021225;28;20045;-41
2022/11/23 10:25:48;;;;;;;9.43;2.22;;;10.20;99.90;;;;;;5035363;28;20039;-40
2022/11/23 10:28:17;;;;;;;10.02;2.38;;;10.20;99.90;;;;;;5040966;28;20029;-40
2022/11/23 10:30:52;;;;;;;10.45;2.25;;;10.20;99.90;;;;;;5040776;28;20083;-40
2022/11/23 10:33:41;;;;;;;9.35;2.30;;;10.20;99.90;;;;;;5040387;28;20025;-40
2022/11/23 10:36:10;;;;;;;7.25;1.88;;;10.30;99.90;;;;;;5042925;28;20048;-40
2022/11/23 10:38:35;;;;;;;8.40;1.80;;;10.30;99.90;;;;;;5044773;28;20017;-42
2022/11/23 10:41:10;;;;;;;9.48;2.53;;;10.30;99.90;;;;;;5043969;28;20405;-41
2022/11/23 10:43:54;;;;;;;8.07;2.10;;;10.30;99.90;;;;;;5045026;28;20029;-40
2022/11/23 10:46:39;;;;;;;8.05;2.10;;;10.30;99.90;;;;;;5044018;28;20508;-36
2022/11/23 10:49:14;;;;;;;8.13;2.20;;;10.30;99.90;;;;;;5025155;28;20029;-39
2022/11/23 10:51:48;;;;;;;10.43;2.13;;;10.30;99.90;;;;;;5041128;28;20053;-41
2022/11/23 10:54:25;;;;;;;9.23;2.50;;;10.30;99.90;;;;;;5023977;28;20117;-40
2022/11/23 10:56:52;;;;;;;9.10;1.90;;;10.40;99.90;;;;;;5040809;28;20029;-37
2022/11/23 10:59:32;;;;;;;9.60;2.92;;;10.40;99.90;;;;;;5044183;28;20056;-40
2022/11/23 11:02:04;;;;;;;11.35;2.30;;;10.40;99.90;;;;;;5043267;28;20400;-39
2022/11/23 11:04:30;;;;;;;8.82;2.20;;;10.40;99.90;;;;;;5025113;28;20025;-40
2022/11/23 11:07:30;;;;;;;8.30;2.00;;;10.40;99.90;;;;;;5037946;28;20467;-39
2022/11/23 11:10:00;;;;;;;6.55;1.52;;;10.50;99.90;;;;;;5025141;28;20145;-37
2022/11/23 11:12:28;;;;;;;10.98;2.40;;;10.50;99.90;;;;;;5043838;28;20043;-38
2022/11/23 11:14:57;;;;;;;10.15;2.17;;;10.50;99.90;;;;;;5043845;28;20021;-36
2022/11/23 11:17:28;;;;;;;5.68;1.40;;;10.50;99.90;;;;;;5044457;28;20775;-37
2022/11/23 11:19:54;;;;;;;7.43;1.80;;;10.60;99.90;;;;;;5043827;28;20163;-38
2022/11/23 11:22:39;;;;;;;4.40;1.40;;;10.60;99.90;;;;;;5042615;28;20131;-40
2022/11/23 11:25:06;;;;;;;8.02;1.83;;;10.60;99.90;;;;;;5044096;28;20025;-40
2022/11/23 11:27:32;;;;;;;9.50;1.80;;;10.70;99.90;;;;;;5043613;28;20069;-41
2022/11/23 11:30:06;;;;;;;5.45;1.60;;;10.70;99.90;;;;;;5042598;28;20102;-41
2022/11/23 11:32:43;;;;;;;6.65;1.60;;;10.70;99.90;;;;;;5043682;28;20045;-41
2022/11/23 11:35:28;;;;;;;6.90;1.73;;;10.70;99.90;;;;;;5042366;28;20041;-41
2022/11/23 11:38:14;;;;;;;10.45;1.90;;;10.80;99.90;;;;;;5042802;28;20029;-39
2022/11/23 11:40:48;;;;;;;7.95;1.75;;;10.80;99.90;;;;;;5043487;28;20372;-41
2022/11/23 11:43:19;;;;;;;8.15;1.77;;;10.80;99.90;;;;;;5042646;28;20556;-40
2022/11/23 11:45:55;;;;;;;8.82;2.20;;;10.80;99.90;;;;;;5043089;28;20025;-40
2022/11/23 11:48:48;;;;;;;7.15;1.55;;;10.90;99.90;;;;;;5042819;28;20040;-41
2022/11/23 11:51:18;;;;;;;9.13;1.73;;;10.90;99.90;;;;;;5042649;28;20500;-40
2022/11/23 11:54:04;;;;;;;10.50;1.98;;;11.00;99.90;;;;;;5043367;28;20037;-42
2022/11/23 11:56:36;;;;;;;7.75;2.05;;;11.00;99.90;;;;;;5018667;28;20037;-41
2022/11/23 11:59:11;;;;;;;4.97;1.40;;;11.10;99.90;;;;;;5039549;28;20484;-41
2022/11/23 12:01:43;;;;;;;6.88;1.48;;;11.00;99.90;;;;;;5043364;28;20065;-41
2022/11/23 12:04:26;;;;;;;5.78;1.17;;;11.10;99.90;;;;;;5042079;28;20028;-39
2022/11/23 12:07:25;;;;;;;5.68;1.75;;;11.10;99.90;;;;;;5043294;28;20029;-41
2022/11/23 12:09:57;;;;;;;4.60;1.80;;;11.20;99.90;;;;;;5042433;28;20024;-41
2022/11/23 12:12:22;;;;;;;6.38;1.98;;;11.20;99.90;;;;;;5042690;28;20078;-42
2022/11/23 12:14:48;;;;;;;5.88;1.35;;;11.20;99.90;;;;;;5042706;28;20040;-40
2022/11/23 12:17:32;;;;;;;7.25;1.60;;;11.10;99.90;;;;;;5043482;28;20028;-40
2022/11/23 12:20:03;;;;;;;6.43;1.90;;;11.20;99.90;;;;;;5042138;28;20029;-41
2022/11/23 12:22:42;;;;;;;4.78;1.40;;;11.20;99.90;;;;;;5042904;28;20037;-40
2022/11/23 12:25:37;;;;;;;3.78;1.10;;;11.30;99.90;;;;;;5041805;28;20071;-41
2022/11/23 12:28:17;;;;;;;6.82;1.65;;;11.40;99.90;;;;;;5042528;28;20025;-40
2022/11/23 12:30:52;;;;;;;4.38;1.05;;;11.40;99.90;;;;;;5042183;28;20020;-41
2022/11/23 12:33:30;;;;;;;5.00;1.38;;;11.40;99.90;;;;;;5041652;28;20707;-39
2022/11/23 12:36:17;;;;;;;5.40;1.40;;;11.40;99.90;;;;;;5039342;28;20048;-40
2022/11/23 12:39:17;;;;;;;5.28;1.25;;;11.50;99.90;;;;;;5041859;28;20114;-41
2022/11/23 12:41:59;;;;;;;6.18;1.20;;;11.50;99.90;;;;;;5034142;28;20110;-41
2022/11/23 12:44:24;;;;;;;5.15;1.35;;;11.50;99.90;;;;;;5042791;28;20025;-41
2022/11/23 12:47:11;;;;;;;8.10;1.38;;;11.50;99.90;;;;;;5042386;28;20102;-39
2022/11/23 12:50:08;;;;;;;5.68;1.35;;;11.50;99.90;;;;;;5042466;28;20021;-41
2022/11/23 12:53:12;;;;;;;11.18;2.05;;;11.50;99.90;;;;;;5041960;28;20036;-40
2022/11/23 12:56:16;;;;;;;5.10;1.02;;;11.50;99.90;;;;;;5042098;28;20428;-41
2022/11/23 12:58:45;;;;;;;3.55;1.00;;;11.50;99.90;;;;;;5014682;28;20044;-40
2022/11/23 13:01:20;;;;;;;2.60;1.23;;;11.50;99.90;;;;;;5038431;28;20048;-40
2022/11/23 13:04:23;;;;;;;5.82;1.20;;;11.50;99.90;;;;;;5042138;28;20028;-41